Aviation Digital Data Service (ADDS)

Output produced by METARs form (1449 UTC 19 August 2019)
found at http://aviationweather.gov/metar/data/
 
TAF EDDW 191100Z 1912/2012 23013KT 9999 SCT040 
     TEMPO 1912/1916 24015G25KT SCT030TCU 
     BECMG 1916/1919 20005KT 
     BECMG 2006/2008 23010KT